Ebeye, MH

5:40 PM MHT on July 07, 2015 (GMT +1200)
Wake Island Army Air Field | | Change Station
CLOSE
Current Station
Airport
Location: Wake Island, Wake Island Army,
Elevation: 13 ft
Nearby Weather Stations

Elev 13 ft 19.28 °N, 166.64 °E | Updated 42 minutes ago

Haze
Haze
84 °F
Feels Like 91 °F
N
14
Wind Variable Wind from ENE

Today
High -- | Low -- °F
--% Chance of Precip.
Yesterday
High -- | Low -- °F
Precip. -- in
6:24 AM 6:56 PM
Waning Gibbous, 68% visible
Pressure 29.91 in
Visibility 5.6 miles
Clouds Scattered Clouds 2100 ft
Heat Index 91 °F
Dew Point 73 °F
Humidity 69%
Rainfall 0.00 in
Snow Depth Not available.
UV 3 out of 12
Pollen Not available.
Air Quality Not available.
Flu Activity Not available.
METAR PWAK 070458Z AUTO 07012KT 9000 HZ SCT021 29/23 A2989 RMK AO2 SLP128 T02910230 $

More Conditions Fewer Conditions

Pressure 29.91 in
Visibility 5.6 miles
Clouds Scattered Clouds 2100 ft
Heat Index 91 °F
Dew Point 73 °F
Humidity 69%
Rainfall 0.00 in
Snow Depth Not available.
UV 3 out of 12
Pollen Not available.
Air Quality Not available.
Flu Activity Not available.
METAR PWAK 070458Z AUTO 07012KT 9000 HZ SCT021 29/23 A2989 RMK AO2 SLP128 T02910230 $

More Conditions Fewer Conditions

10-Day Weather Forecast

×

Almanac

Astronomy

Jul. 07, 2015 Rise Set
Actual Time
Civil Twilight
Nautical Twilight
Astronomical Twilight
Moon
Length of Visible Light
Length of Day
Tomorrow will be .
, % of the Moon is Illuminated

Today's Extremes

State Highs State Lows

Community

WunderPhotos

Upload Photos

1,835,733 photos uploaded!

WunderBlogs® & News

Nearby

Air Quality

  Air Quality AQ Index Pollutant
Not available.

Snow Depth

Station Depth Elevation

Earthquake Activity

City Distance Mag. Time & Date
Minimum magnitude displayed is 2.5.

Coastal Water Temperatures

Place Temperature

Stations

Nearby Weather Stations

Station Location Temp. Windchill Dew Point Humidity Wind Precip. Elev Updated Type